sensor_id;sensor_type;location;lat;lon;timestamp;P1;durP1;ratioP1;P2;durP2;ratioP2
61785;SDS011;47692;53.714;11.372;2023-11-21T00:01:25;10.77;;;4.90;;
61785;SDS011;47692;53.714;11.372;2023-11-21T00:03:51;9.98;;;4.70;;
61785;SDS011;47692;53.714;11.372;2023-11-21T00:06:19;8.10;;;4.38;;
61785;SDS011;47692;53.714;11.372;2023-11-21T00:08:45;9.25;;;4.22;;
61785;SDS011;47692;53.714;11.372;2023-11-21T00:11:10;9.68;;;4.55;;
61785;SDS011;47692;53.714;11.372;2023-11-21T00:13:36;10.07;;;4.43;;
61785;SDS011;47692;53.714;11.372;2023-11-21T00:16:02;8.75;;;4.15;;
61785;SDS011;47692;53.714;11.372;2023-11-21T00:18:29;8.13;;;4.13;;
61785;SDS011;47692;53.714;11.372;2023-11-21T00:20:55;8.50;;;4.78;;
61785;SDS011;47692;53.714;11.372;2023-11-21T00:23:20;8.60;;;4.38;;
61785;SDS011;47692;53.714;11.372;2023-11-21T00:25:46;7.72;;;3.92;;
61785;SDS011;47692;53.714;11.372;2023-11-21T00:28:11;8.68;;;4.55;;
61785;SDS011;47692;53.714;11.372;2023-11-21T00:30:36;8.65;;;4.43;;
61785;SDS011;47692;53.714;11.372;2023-11-21T00:33:02;8.18;;;4.25;;
61785;SDS011;47692;53.714;11.372;2023-11-21T00:35:27;9.07;;;4.03;;
61785;SDS011;47692;53.714;11.372;2023-11-21T00:37:53;6.93;;;3.72;;
61785;SDS011;47692;53.714;11.372;2023-11-21T00:40:18;6.40;;;3.75;;
61785;SDS011;47692;53.714;11.372;2023-11-21T00:42:46;8.93;;;4.10;;
61785;SDS011;47692;53.714;11.372;2023-11-21T00:45:11;7.45;;;3.85;;
61785;SDS011;47692;53.714;11.372;2023-11-21T00:47:37;7.38;;;4.03;;
61785;SDS011;47692;53.714;11.372;2023-11-21T00:50:04;8.43;;;4.15;;
61785;SDS011;47692;53.714;11.372;2023-11-21T00:52:31;7.20;;;3.70;;
61785;SDS011;47692;53.714;11.372;2023-11-21T00:54:56;6.75;;;3.38;;
61785;SDS011;47692;53.714;11.372;2023-11-21T00:57:24;6.72;;;3.60;;
61785;SDS011;47692;53.714;11.372;2023-11-21T00:59:50;6.20;;;3.72;;
61785;SDS011;47692;53.714;11.372;2023-11-21T01:02:15;9.63;;;4.10;;
61785;SDS011;47692;53.714;11.372;2023-11-21T01:04:40;7.68;;;3.78;;
61785;SDS011;47692;53.714;11.372;2023-11-21T01:07:06;7.05;;;4.15;;
61785;SDS011;47692;53.714;11.372;2023-11-21T01:09:32;7.78;;;3.80;;
61785;SDS011;47692;53.714;11.372;2023-11-21T01:11:57;7.32;;;3.70;;
61785;SDS011;47692;53.714;11.372;2023-11-21T01:14:24;7.78;;;4.25;;
61785;SDS011;47692;53.714;11.372;2023-11-21T01:16:51;6.25;;;3.70;;
61785;SDS011;47692;53.714;11.372;2023-11-21T01:19:17;6.55;;;3.50;;
61785;SDS011;47692;53.714;11.372;2023-11-21T01:21:43;6.68;;;3.70;;
61785;SDS011;47692;53.714;11.372;2023-11-21T01:24:08;9.07;;;3.78;;
61785;SDS011;47692;53.714;11.372;2023-11-21T01:26:34;7.43;;;3.83;;
61785;SDS011;47692;53.714;11.372;2023-11-21T01:28:59;6.30;;;3.60;;
61785;SDS011;47692;53.714;11.372;2023-11-21T01:31:25;9.13;;;4.13;;
61785;SDS011;47692;53.714;11.372;2023-11-21T01:33:54;5.82;;;3.72;;
61785;SDS011;47692;53.714;11.372;2023-11-21T01:36:20;7.20;;;3.88;;
61785;SDS011;47692;53.714;11.372;2023-11-21T01:38:46;6.88;;;3.90;;
61785;SDS011;47692;53.714;11.372;2023-11-21T01:41:13;6.15;;;2.75;;
61785;SDS011;47692;53.714;11.372;2023-11-21T01:43:39;5.75;;;3.15;;
61785;SDS011;47692;53.714;11.372;2023-11-21T01:46:05;8.65;;;4.15;;
61785;SDS011;47692;53.714;11.372;2023-11-21T01:48:31;7.22;;;4.03;;
61785;SDS011;47692;53.714;11.372;2023-11-21T01:50:57;7.68;;;4.35;;
61785;SDS011;47692;53.714;11.372;2023-11-21T01:53:26;6.00;;;3.95;;
61785;SDS011;47692;53.714;11.372;2023-11-21T01:55:53;6.18;;;3.92;;
61785;SDS011;47692;53.714;11.372;2023-11-21T01:58:20;8.73;;;4.50;;
61785;SDS011;47692;53.714;11.372;2023-11-21T02:00:46;7.82;;;4.03;;
61785;SDS011;47692;53.714;11.372;2023-11-21T02:03:15;6.40;;;3.95;;
61785;SDS011;47692;53.714;11.372;2023-11-21T02:05:41;7.35;;;4.18;;
61785;SDS011;47692;53.714;11.372;2023-11-21T02:08:07;6.88;;;4.05;;
61785;SDS011;47692;53.714;11.372;2023-11-21T02:10:34;8.48;;;4.40;;
61785;SDS011;47692;53.714;11.372;2023-11-21T02:13:02;7.93;;;5.00;;
61785;SDS011;47692;53.714;11.372;2023-11-21T02:15:27;8.38;;;4.80;;
61785;SDS011;47692;53.714;11.372;2023-11-21T02:17:54;7.47;;;4.18;;
61785;SDS011;47692;53.714;11.372;2023-11-21T02:20:20;7.85;;;4.65;;
61785;SDS011;47692;53.714;11.372;2023-11-21T02:22:51;10.75;;;5.40;;
61785;SDS011;47692;53.714;11.372;2023-11-21T02:25:27;8.20;;;4.65;;
61785;SDS011;47692;53.714;11.372;2023-11-21T02:27:54;6.90;;;4.30;;
61785;SDS011;47692;53.714;11.372;2023-11-21T02:30:21;9.02;;;4.90;;
61785;SDS011;47692;53.714;11.372;2023-11-21T02:32:47;9.05;;;4.60;;
61785;SDS011;47692;53.714;11.372;2023-11-21T02:35:13;8.02;;;4.53;;
61785;SDS011;47692;53.714;11.372;2023-11-21T02:37:41;9.43;;;5.07;;
61785;SDS011;47692;53.714;11.372;2023-11-21T02:40:08;9.45;;;5.70;;
61785;SDS011;47692;53.714;11.372;2023-11-21T02:42:35;8.38;;;5.28;;
61785;SDS011;47692;53.714;11.372;2023-11-21T02:45:00;10.30;;;5.45;;
61785;SDS011;47692;53.714;11.372;2023-11-21T02:47:26;8.93;;;5.10;;
61785;SDS011;47692;53.714;11.372;2023-11-21T02:49:51;8.75;;;5.03;;
61785;SDS011;47692;53.714;11.372;2023-11-21T02:52:17;9.70;;;5.22;;
61785;SDS011;47692;53.714;11.372;2023-11-21T02:54:44;10.63;;;5.65;;
61785;SDS011;47692;53.714;11.372;2023-11-21T02:57:10;9.23;;;5.60;;
61785;SDS011;47692;53.714;11.372;2023-11-21T02:59:35;8.77;;;5.30;;
61785;SDS011;47692;53.714;11.372;2023-11-21T03:02:01;9.38;;;5.50;;
61785;SDS011;47692;53.714;11.372;2023-11-21T03:04:26;11.50;;;6.00;;
61785;SDS011;47692;53.714;11.372;2023-11-21T03:06:52;11.35;;;6.07;;
61785;SDS011;47692;53.714;11.372;2023-11-21T03:09:17;11.27;;;5.13;;
61785;SDS011;47692;53.714;11.372;2023-11-21T03:11:42;9.48;;;5.68;;
61785;SDS011;47692;53.714;11.372;2023-11-21T03:14:08;10.60;;;6.07;;
61785;SDS011;47692;53.714;11.372;2023-11-21T03:16:33;10.30;;;5.45;;
61785;SDS011;47692;53.714;11.372;2023-11-21T03:18:59;9.70;;;5.63;;
61785;SDS011;47692;53.714;11.372;2023-11-21T03:21:24;10.45;;;5.60;;
61785;SDS011;47692;53.714;11.372;2023-11-21T03:23:51;10.55;;;5.93;;
61785;SDS011;47692;53.714;11.372;2023-11-21T03:26:17;12.85;;;6.53;;
61785;SDS011;47692;53.714;11.372;2023-11-21T03:28:43;10.93;;;6.32;;
61785;SDS011;47692;53.714;11.372;2023-11-21T03:31:08;10.60;;;5.95;;
61785;SDS011;47692;53.714;11.372;2023-11-21T03:33:34;11.00;;;5.97;;
61785;SDS011;47692;53.714;11.372;2023-11-21T03:36:00;11.68;;;6.32;;
61785;SDS011;47692;53.714;11.372;2023-11-21T03:38:26;10.10;;;5.68;;
61785;SDS011;47692;53.714;11.372;2023-11-21T03:40:51;9.73;;;5.68;;
61785;SDS011;47692;53.714;11.372;2023-11-21T03:43:17;11.75;;;6.25;;
61785;SDS011;47692;53.714;11.372;2023-11-21T03:45:42;11.23;;;5.40;;
61785;SDS011;47692;53.714;11.372;2023-11-21T03:48:08;11.75;;;6.10;;
61785;SDS011;47692;53.714;11.372;2023-11-21T03:50:34;12.77;;;6.35;;
61785;SDS011;47692;53.714;11.372;2023-11-21T03:53:00;10.98;;;6.13;;
61785;SDS011;47692;53.714;11.372;2023-11-21T03:55:25;12.20;;;5.95;;
61785;SDS011;47692;53.714;11.372;2023-11-21T03:57:51;11.55;;;5.55;;
61785;SDS011;47692;53.714;11.372;2023-11-21T04:00:17;12.68;;;6.40;;
61785;SDS011;47692;53.714;11.372;2023-11-21T04:02:43;10.77;;;6.20;;
61785;SDS011;47692;53.714;11.372;2023-11-21T04:05:08;9.98;;;5.95;;
61785;SDS011;47692;53.714;11.372;2023-11-21T04:07:34;12.30;;;6.47;;
61785;SDS011;47692;53.714;11.372;2023-11-21T04:10:00;10.45;;;5.72;;
61785;SDS011;47692;53.714;11.372;2023-11-21T04:12:26;11.38;;;5.93;;
61785;SDS011;47692;53.714;11.372;2023-11-21T04:14:51;12.38;;;5.93;;
61785;SDS011;47692;53.714;11.372;2023-11-21T04:17:19;13.98;;;5.97;;
61785;SDS011;47692;53.714;11.372;2023-11-21T04:19:45;11.70;;;6.05;;
61785;SDS011;47692;53.714;11.372;2023-11-21T04:22:11;11.63;;;6.25;;
61785;SDS011;47692;53.714;11.372;2023-11-21T04:24:37;13.35;;;7.00;;
61785;SDS011;47692;53.714;11.372;2023-11-21T04:27:02;11.77;;;6.35;;
61785;SDS011;47692;53.714;11.372;2023-11-21T04:29:27;11.18;;;6.65;;
61785;SDS011;47692;53.714;11.372;2023-11-21T04:31:53;13.43;;;7.05;;
61785;SDS011;47692;53.714;11.372;2023-11-21T04:34:19;12.45;;;6.32;;
61785;SDS011;47692;53.714;11.372;2023-11-21T04:36:44;12.75;;;7.82;;
61785;SDS011;47692;53.714;11.372;2023-11-21T04:39:10;15.40;;;7.55;;
61785;SDS011;47692;53.714;11.372;2023-11-21T04:41:36;12.48;;;7.00;;
61785;SDS011;47692;53.714;11.372;2023-11-21T04:44:04;13.52;;;6.93;;
61785;SDS011;47692;53.714;11.372;2023-11-21T04:46:30;13.55;;;7.50;;
61785;SDS011;47692;53.714;11.372;2023-11-21T04:48:56;12.85;;;6.93;;
61785;SDS011;47692;53.714;11.372;2023-11-21T04:51:22;14.13;;;7.60;;
61785;SDS011;47692;53.714;11.372;2023-11-21T04:53:47;14.05;;;6.45;;
61785;SDS011;47692;53.714;11.372;2023-11-21T04:56:13;11.63;;;6.68;;
61785;SDS011;47692;53.714;11.372;2023-11-21T04:58:38;13.85;;;6.65;;
61785;SDS011;47692;53.714;11.372;2023-11-21T05:01:05;11.77;;;6.95;;
61785;SDS011;47692;53.714;11.372;2023-11-21T05:03:32;11.18;;;6.28;;
61785;SDS011;47692;53.714;11.372;2023-11-21T05:05:57;12.05;;;6.10;;
61785;SDS011;47692;53.714;11.372;2023-11-21T05:08:24;10.23;;;5.38;;
61785;SDS011;47692;53.714;11.372;2023-11-21T05:10:51;11.60;;;6.70;;
61785;SDS011;47692;53.714;11.372;2023-11-21T05:13:17;11.40;;;6.07;;
61785;SDS011;47692;53.714;11.372;2023-11-21T05:15:43;12.30;;;5.93;;
61785;SDS011;47692;53.714;11.372;2023-11-21T05:18:09;9.35;;;5.20;;
61785;SDS011;47692;53.714;11.372;2023-11-21T05:20:35;9.80;;;5.28;;
61785;SDS011;47692;53.714;11.372;2023-11-21T05:23:01;12.40;;;5.82;;
61785;SDS011;47692;53.714;11.372;2023-11-21T05:25:26;9.82;;;5.47;;
61785;SDS011;47692;53.714;11.372;2023-11-21T05:27:52;10.35;;;5.32;;
61785;SDS011;47692;53.714;11.372;2023-11-21T05:30:19;12.43;;;6.15;;
61785;SDS011;47692;53.714;11.372;2023-11-21T05:32:46;9.20;;;5.60;;
61785;SDS011;47692;53.714;11.372;2023-11-21T05:35:11;10.35;;;5.63;;
61785;SDS011;47692;53.714;11.372;2023-11-21T05:37:40;9.95;;;5.47;;
61785;SDS011;47692;53.714;11.372;2023-11-21T05:40:06;10.52;;;5.35;;
61785;SDS011;47692;53.714;11.372;2023-11-21T05:42:33;8.68;;;5.38;;
61785;SDS011;47692;53.714;11.372;2023-11-21T05:44:59;8.77;;;5.07;;
61785;SDS011;47692;53.714;11.372;2023-11-21T05:47:34;12.73;;;6.03;;
61785;SDS011;47692;53.714;11.372;2023-11-21T05:50:01;8.93;;;4.63;;
61785;SDS011;47692;53.714;11.372;2023-11-21T05:52:27;10.05;;;5.45;;
61785;SDS011;47692;53.714;11.372;2023-11-21T05:54:52;8.00;;;4.93;;
61785;SDS011;47692;53.714;11.372;2023-11-21T05:57:18;7.50;;;4.47;;
61785;SDS011;47692;53.714;11.372;2023-11-21T05:59:43;8.73;;;5.03;;
61785;SDS011;47692;53.714;11.372;2023-11-21T06:02:08;10.57;;;5.30;;
61785;SDS011;47692;53.714;11.372;2023-11-21T06:04:34;9.35;;;4.57;;
61785;SDS011;47692;53.714;11.372;2023-11-21T06:06:59;8.75;;;5.18;;
61785;SDS011;47692;53.714;11.372;2023-11-21T06:09:26;10.73;;;5.32;;
61785;SDS011;47692;53.714;11.372;2023-11-21T06:11:52;7.97;;;4.65;;
61785;SDS011;47692;53.714;11.372;2023-11-21T06:14:18;7.72;;;4.53;;
61785;SDS011;47692;53.714;11.372;2023-11-21T06:16:43;9.32;;;5.00;;
61785;SDS011;47692;53.714;11.372;2023-11-21T06:19:10;7.35;;;4.35;;
61785;SDS011;47692;53.714;11.372;2023-11-21T06:21:36;8.25;;;4.43;;
61785;SDS011;47692;53.714;11.372;2023-11-21T06:24:01;7.28;;;4.22;;
61785;SDS011;47692;53.714;11.372;2023-11-21T06:26:26;7.68;;;4.63;;
61785;SDS011;47692;53.714;11.372;2023-11-21T06:28:53;9.07;;;4.95;;
61785;SDS011;47692;53.714;11.372;2023-11-21T06:31:18;6.70;;;3.97;;
61785;SDS011;47692;53.714;11.372;2023-11-21T06:33:44;7.63;;;4.15;;
61785;SDS011;47692;53.714;11.372;2023-11-21T06:36:09;7.18;;;4.25;;
61785;SDS011;47692;53.714;11.372;2023-11-21T06:38:36;5.97;;;3.95;;
61785;SDS011;47692;53.714;11.372;2023-11-21T06:41:02;7.88;;;4.78;;
61785;SDS011;47692;53.714;11.372;2023-11-21T06:43:29;6.88;;;3.75;;
61785;SDS011;47692;53.714;11.372;2023-11-21T06:45:56;7.72;;;4.05;;
61785;SDS011;47692;53.714;11.372;2023-11-21T06:48:22;7.53;;;4.45;;
61785;SDS011;47692;53.714;11.372;2023-11-21T06:50:47;6.82;;;3.85;;
61785;SDS011;47692;53.714;11.372;2023-11-21T06:53:13;8.07;;;4.85;;
61785;SDS011;47692;53.714;11.372;2023-11-21T06:55:38;9.00;;;3.92;;
61785;SDS011;47692;53.714;11.372;2023-11-21T06:58:04;8.60;;;4.10;;
61785;SDS011;47692;53.714;11.372;2023-11-21T07:00:30;7.13;;;4.40;;
61785;SDS011;47692;53.714;11.372;2023-11-21T07:02:56;6.30;;;3.90;;
61785;SDS011;47692;53.714;11.372;2023-11-21T07:05:22;7.22;;;4.15;;
61785;SDS011;47692;53.714;11.372;2023-11-21T07:07:48;7.38;;;3.90;;
61785;SDS011;47692;53.714;11.372;2023-11-21T07:10:15;10.35;;;4.22;;
61785;SDS011;47692;53.714;11.372;2023-11-21T07:12:41;7.85;;;3.90;;
61785;SDS011;47692;53.714;11.372;2023-11-21T07:15:07;6.85;;;3.90;;
61785;SDS011;47692;53.714;11.372;2023-11-21T07:17:37;7.10;;;4.13;;
61785;SDS011;47692;53.714;11.372;2023-11-21T07:20:03;6.40;;;3.90;;
61785;SDS011;47692;53.714;11.372;2023-11-21T07:22:29;7.70;;;4.57;;
61785;SDS011;47692;53.714;11.372;2023-11-21T07:24:55;7.10;;;4.25;;
61785;SDS011;47692;53.714;11.372;2023-11-21T07:27:21;6.78;;;3.97;;
61785;SDS011;47692;53.714;11.372;2023-11-21T07:29:47;6.88;;;3.67;;
61785;SDS011;47692;53.714;11.372;2023-11-21T07:32:13;9.25;;;4.68;;
61785;SDS011;47692;53.714;11.372;2023-11-21T07:34:40;7.18;;;4.20;;
61785;SDS011;47692;53.714;11.372;2023-11-21T07:37:06;9.18;;;5.10;;
61785;SDS011;47692;53.714;11.372;2023-11-21T07:39:33;8.50;;;4.50;;
61785;SDS011;47692;53.714;11.372;2023-11-21T07:41:59;8.23;;;4.63;;
61785;SDS011;47692;53.714;11.372;2023-11-21T07:44:25;8.80;;;4.93;;
61785;SDS011;47692;53.714;11.372;2023-11-21T07:46:51;7.43;;;4.00;;
61785;SDS011;47692;53.714;11.372;2023-11-21T07:49:16;8.50;;;4.43;;
61785;SDS011;47692;53.714;11.372;2023-11-21T07:51:45;8.07;;;4.53;;
61785;SDS011;47692;53.714;11.372;2023-11-21T07:54:11;9.30;;;4.35;;
61785;SDS011;47692;53.714;11.372;2023-11-21T07:56:36;8.38;;;4.63;;
61785;SDS011;47692;53.714;11.372;2023-11-21T07:59:02;6.72;;;4.25;;
61785;SDS011;47692;53.714;11.372;2023-11-21T08:01:27;7.80;;;4.30;;
61785;SDS011;47692;53.714;11.372;2023-11-21T08:03:53;7.65;;;4.05;;
61785;SDS011;47692;53.714;11.372;2023-11-21T08:06:22;8.15;;;4.47;;
61785;SDS011;47692;53.714;11.372;2023-11-21T08:08:49;7.22;;;4.45;;
61785;SDS011;47692;53.714;11.372;2023-11-21T08:11:14;9.00;;;4.63;;
61785;SDS011;47692;53.714;11.372;2023-11-21T08:13:40;7.90;;;4.45;;
61785;SDS011;47692;53.714;11.372;2023-11-21T08:16:05;8.95;;;4.47;;
61785;SDS011;47692;53.714;11.372;2023-11-21T08:18:32;11.35;;;5.00;;
61785;SDS011;47692;53.714;11.372;2023-11-21T08:20:59;7.55;;;4.75;;
61785;SDS011;47692;53.714;11.372;2023-11-21T08:23:25;9.88;;;4.68;;
61785;SDS011;47692;53.714;11.372;2023-11-21T08:25:54;8.45;;;4.72;;
61785;SDS011;47692;53.714;11.372;2023-11-21T08:28:20;8.82;;;4.30;;
61785;SDS011;47692;53.714;11.372;2023-11-21T08:30:51;7.80;;;4.45;;
61785;SDS011;47692;53.714;11.372;2023-11-21T08:33:22;6.95;;;4.25;;
61785;SDS011;47692;53.714;11.372;2023-11-21T08:35:48;7.47;;;4.78;;
61785;SDS011;47692;53.714;11.372;2023-11-21T08:38:14;7.00;;;4.78;;
61785;SDS011;47692;53.714;11.372;2023-11-21T08:40:39;9.25;;;4.38;;
61785;SDS011;47692;53.714;11.372;2023-11-21T08:43:05;5.70;;;4.07;;
61785;SDS011;47692;53.714;11.372;2023-11-21T08:45:30;8.73;;;4.57;;
61785;SDS011;47692;53.714;11.372;2023-11-21T08:47:59;6.30;;;4.15;;
61785;SDS011;47692;53.714;11.372;2023-11-21T08:50:24;8.05;;;3.95;;
61785;SDS011;47692;53.714;11.372;2023-11-21T08:52:50;5.93;;;3.83;;
61785;SDS011;47692;53.714;11.372;2023-11-21T08:55:16;6.82;;;3.90;;
61785;SDS011;47692;53.714;11.372;2023-11-21T08:57:43;6.93;;;4.25;;
61785;SDS011;47692;53.714;11.372;2023-11-21T09:00:09;5.95;;;3.65;;
61785;SDS011;47692;53.714;11.372;2023-11-21T09:02:42;6.88;;;3.92;;
61785;SDS011;47692;53.714;11.372;2023-11-21T09:05:09;8.70;;;4.65;;
61785;SDS011;47692;53.714;11.372;2023-11-21T09:07:35;6.68;;;4.22;;
61785;SDS011;47692;53.714;11.372;2023-11-21T09:10:02;5.53;;;3.67;;
61785;SDS011;47692;53.714;11.372;2023-11-21T09:12:28;8.73;;;4.07;;
61785;SDS011;47692;53.714;11.372;2023-11-21T09:14:53;8.77;;;3.88;;
61785;SDS011;47692;53.714;11.372;2023-11-21T09:17:19;6.50;;;3.65;;
61785;SDS011;47692;53.714;11.372;2023-11-21T09:19:44;6.38;;;3.40;;
61785;SDS011;47692;53.714;11.372;2023-11-21T09:22:12;7.78;;;3.20;;
61785;SDS011;47692;53.714;11.372;2023-11-21T09:24:37;6.70;;;4.00;;
61785;SDS011;47692;53.714;11.372;2023-11-21T09:27:03;5.40;;;3.75;;
61785;SDS011;47692;53.714;11.372;2023-11-21T09:29:30;6.50;;;3.60;;
61785;SDS011;47692;53.714;11.372;2023-11-21T09:31:56;5.95;;;3.17;;
61785;SDS011;47692;53.714;11.372;2023-11-21T09:34:24;6.57;;;3.38;;
61785;SDS011;47692;53.714;11.372;2023-11-21T09:36:50;5.70;;;3.40;;
61785;SDS011;47692;53.714;11.372;2023-11-21T09:39:16;5.78;;;3.92;;
61785;SDS011;47692;53.714;11.372;2023-11-21T09:41:43;7.85;;;3.38;;
61785;SDS011;47692;53.714;11.372;2023-11-21T09:44:14;6.88;;;3.70;;
61785;SDS011;47692;53.714;11.372;2023-11-21T09:46:45;7.65;;;4.05;;
61785;SDS011;47692;53.714;11.372;2023-11-21T09:49:14;6.88;;;4.00;;
61785;SDS011;47692;53.714;11.372;2023-11-21T09:51:43;5.35;;;3.53;;
61785;SDS011;47692;53.714;11.372;2023-11-21T09:54:09;6.10;;;3.42;;
61785;SDS011;47692;53.714;11.372;2023-11-21T09:56:37;5.15;;;3.00;;
61785;SDS011;47692;53.714;11.372;2023-11-21T09:59:03;7.90;;;4.35;;
61785;SDS011;47692;53.714;11.372;2023-11-21T10:01:33;6.32;;;3.60;;
61785;SDS011;47692;53.714;11.372;2023-11-21T10:04:01;7.13;;;3.83;;
61785;SDS011;47692;53.714;11.372;2023-11-21T10:06:26;14.20;;;6.10;;
61785;SDS011;47692;53.714;11.372;2023-11-21T10:08:53;12.65;;;7.05;;
61785;SDS011;47692;53.714;11.372;2023-11-21T10:11:23;6.82;;;4.22;;
61785;SDS011;47692;53.714;11.372;2023-11-21T10:13:52;8.77;;;4.63;;
61785;SDS011;47692;53.714;11.372;2023-11-21T10:16:19;8.27;;;4.95;;
61785;SDS011;47692;53.714;11.372;2023-11-21T10:18:49;6.47;;;3.90;;
61785;SDS011;47692;53.714;11.372;2023-11-21T10:21:18;7.88;;;4.60;;
61785;SDS011;47692;53.714;11.372;2023-11-21T10:23:43;5.60;;;3.75;;
61785;SDS011;47692;53.714;11.372;2023-11-21T10:26:10;6.72;;;4.15;;
61785;SDS011;47692;53.714;11.372;2023-11-21T10:28:54;9.77;;;4.50;;
61785;SDS011;47692;53.714;11.372;2023-11-21T10:31:24;6.93;;;4.22;;
61785;SDS011;47692;53.714;11.372;2023-11-21T10:33:53;8.68;;;4.25;;
61785;SDS011;47692;53.714;11.372;2023-11-21T10:36:25;6.93;;;3.72;;
61785;SDS011;47692;53.714;11.372;2023-11-21T10:38:52;6.63;;;4.22;;
61785;SDS011;47692;53.714;11.372;2023-11-21T10:41:18;7.05;;;3.88;;
61785;SDS011;47692;53.714;11.372;2023-11-21T10:43:45;7.55;;;3.95;;
61785;SDS011;47692;53.714;11.372;2023-11-21T10:46:10;6.28;;;3.90;;
61785;SDS011;47692;53.714;11.372;2023-11-21T10:48:36;7.07;;;3.67;;
61785;SDS011;47692;53.714;11.372;2023-11-21T10:51:06;8.18;;;4.40;;
61785;SDS011;47692;53.714;11.372;2023-11-21T10:53:41;7.05;;;3.92;;
61785;SDS011;47692;53.714;11.372;2023-11-21T10:56:10;6.10;;;3.78;;
61785;SDS011;47692;53.714;11.372;2023-11-21T11:01:08;8.13;;;4.57;;
61785;SDS011;47692;53.714;11.372;2023-11-21T11:03:37;7.15;;;4.15;;
61785;SDS011;47692;53.714;11.372;2023-11-21T11:06:04;8.20;;;4.50;;
61785;SDS011;47692;53.714;11.372;2023-11-21T11:08:32;8.25;;;4.00;;
61785;SDS011;47692;53.714;11.372;2023-11-21T11:10:59;6.07;;;3.67;;
61785;SDS011;47692;53.714;11.372;2023-11-21T11:13:24;6.28;;;3.85;;
61785;SDS011;47692;53.714;11.372;2023-11-21T11:15:50;4.43;;;3.70;;
61785;SDS011;47692;53.714;11.372;2023-11-21T11:18:20;5.53;;;3.42;;
61785;SDS011;47692;53.714;11.372;2023-11-21T11:20:47;5.50;;;3.10;;
61785;SDS011;47692;53.714;11.372;2023-11-21T11:37:26;5.03;;;2.90;;
61785;SDS011;47692;53.714;11.372;2023-11-21T11:39:52;4.40;;;2.65;;
61785;SDS011;47692;53.714;11.372;2023-11-21T11:42:19;5.40;;;2.95;;
61785;SDS011;47692;53.714;11.372;2023-11-21T11:44:48;4.28;;;2.80;;
61785;SDS011;47692;53.714;11.372;2023-11-21T11:52:37;3.85;;;2.30;;
61785;SDS011;47692;53.714;11.372;2023-11-21T11:55:05;4.25;;;1.95;;
61785;SDS011;47692;53.714;11.372;2023-11-21T11:57:38;3.13;;;1.98;;
61785;SDS011;47692;53.714;11.372;2023-11-21T12:02:37;5.38;;;2.72;;
61785;SDS011;47692;53.714;11.372;2023-11-21T12:05:17;3.70;;;2.33;;
61785;SDS011;47692;53.714;11.372;2023-11-21T12:10:18;5.25;;;2.40;;
61785;SDS011;47692;53.714;11.372;2023-11-21T12:12:50;4.57;;;2.08;;
61785;SDS011;47692;53.714;11.372;2023-11-21T12:15:18;4.25;;;2.58;;
61785;SDS011;47692;53.714;11.372;2023-11-21T12:17:44;4.68;;;2.47;;
61785;SDS011;47692;53.714;11.372;2023-11-21T12:20:11;6.03;;;2.70;;
61785;SDS011;47692;53.714;11.372;2023-11-21T12:22:43;4.05;;;2.47;;
61785;SDS011;47692;53.714;11.372;2023-11-21T12:25:13;3.55;;;1.75;;
61785;SDS011;47692;53.714;11.372;2023-11-21T12:27:41;4.20;;;1.98;;
61785;SDS011;47692;53.714;11.372;2023-11-21T12:30:11;4.45;;;1.90;;
61785;SDS011;47692;53.714;11.372;2023-11-21T12:32:41;4.95;;;1.95;;
61785;SDS011;47692;53.714;11.372;2023-11-21T12:35:08;3.95;;;2.00;;
61785;SDS011;47692;53.714;11.372;2023-11-21T12:37:35;3.38;;;2.05;;
61785;SDS011;47692;53.714;11.372;2023-11-21T12:40:06;3.85;;;1.88;;
61785;SDS011;47692;53.714;11.372;2023-11-21T12:42:33;3.30;;;1.65;;
61785;SDS011;47692;53.714;11.372;2023-11-21T12:47:59;3.40;;;1.80;;
61785;SDS011;47692;53.714;11.372;2023-11-21T12:50:28;4.53;;;1.95;;
61785;SDS011;47692;53.714;11.372;2023-11-21T12:52:59;3.50;;;1.73;;
61785;SDS011;47692;53.714;11.372;2023-11-21T12:55:29;2.60;;;1.60;;
61785;SDS011;47692;53.714;11.372;2023-11-21T12:57:55;5.53;;;1.85;;
61785;SDS011;47692;53.714;11.372;2023-11-21T13:00:33;4.60;;;2.10;;
61785;SDS011;47692;53.714;11.372;2023-11-21T13:03:03;4.93;;;2.33;;
61785;SDS011;47692;53.714;11.372;2023-11-21T13:05:32;3.42;;;1.90;;
61785;SDS011;47692;53.714;11.372;2023-11-21T13:08:02;2.75;;;1.67;;
61785;SDS011;47692;53.714;11.372;2023-11-21T13:10:31;7.57;;;2.60;;
61785;SDS011;47692;53.714;11.372;2023-11-21T13:13:00;3.70;;;1.77;;
61785;SDS011;47692;53.714;11.372;2023-11-21T13:15:30;5.00;;;2.30;;
61785;SDS011;47692;53.714;11.372;2023-11-21T13:18:00;3.80;;;2.13;;
61785;SDS011;47692;53.714;11.372;2023-11-21T13:20:26;3.47;;;2.00;;
61785;SDS011;47692;53.714;11.372;2023-11-21T13:22:55;4.85;;;2.63;;
61785;SDS011;47692;53.714;11.372;2023-11-21T13:25:30;5.45;;;2.40;;
61785;SDS011;47692;53.714;11.372;2023-11-21T13:30:28;5.13;;;2.30;;
61785;SDS011;47692;53.714;11.372;2023-11-21T13:35:34;4.50;;;2.27;;
61785;SDS011;47692;53.714;11.372;2023-11-21T13:38:12;6.10;;;1.98;;
61785;SDS011;47692;53.714;11.372;2023-11-21T13:40:57;4.05;;;2.30;;
61785;SDS011;47692;53.714;11.372;2023-11-21T13:43:24;4.82;;;2.65;;
61785;SDS011;47692;53.714;11.372;2023-11-21T13:45:51;4.32;;;2.40;;
61785;SDS011;47692;53.714;11.372;2023-11-21T13:48:40;4.97;;;2.40;;
61785;SDS011;47692;53.714;11.372;2023-11-21T13:51:08;6.38;;;2.13;;
61785;SDS011;47692;53.714;11.372;2023-11-21T13:53:42;3.50;;;2.17;;
61785;SDS011;47692;53.714;11.372;2023-11-21T13:56:08;4.13;;;2.70;;
61785;SDS011;47692;53.714;11.372;2023-11-21T13:58:34;3.83;;;1.95;;
61785;SDS011;47692;53.714;11.372;2023-11-21T14:01:16;5.57;;;2.78;;
61785;SDS011;47692;53.714;11.372;2023-11-21T14:03:57;5.05;;;2.42;;
61785;SDS011;47692;53.714;11.372;2023-11-21T14:06:42;3.72;;;2.00;;
61785;SDS011;47692;53.714;11.372;2023-11-21T14:09:18;2.92;;;1.45;;
61785;SDS011;47692;53.714;11.372;2023-11-21T14:11:54;3.58;;;1.98;;
61785;SDS011;47692;53.714;11.372;2023-11-21T14:14:22;3.57;;;1.80;;
61785;SDS011;47692;53.714;11.372;2023-11-21T14:16:52;5.93;;;2.05;;
61785;SDS011;47692;53.714;11.372;2023-11-21T14:19:19;3.88;;;1.95;;
61785;SDS011;47692;53.714;11.372;2023-11-21T14:21:46;3.80;;;1.83;;
61785;SDS011;47692;53.714;11.372;2023-11-21T14:24:13;5.30;;;2.17;;
61785;SDS011;47692;53.714;11.372;2023-11-21T14:26:42;3.92;;;2.10;;
61785;SDS011;47692;53.714;11.372;2023-11-21T14:29:10;3.97;;;1.80;;
61785;SDS011;47692;53.714;11.372;2023-11-21T14:31:39;4.30;;;1.88;;
61785;SDS011;47692;53.714;11.372;2023-11-21T14:34:05;4.65;;;2.10;;
61785;SDS011;47692;53.714;11.372;2023-11-21T14:36:32;4.03;;;1.73;;
61785;SDS011;47692;53.714;11.372;2023-11-21T14:38:58;5.20;;;2.20;;
61785;SDS011;47692;53.714;11.372;2023-11-21T14:41:23;3.63;;;1.75;;
61785;SDS011;47692;53.714;11.372;2023-11-21T14:43:50;3.95;;;1.65;;
61785;SDS011;47692;53.714;11.372;2023-11-21T14:46:16;5.22;;;2.30;;
61785;SDS011;47692;53.714;11.372;2023-11-21T14:48:44;6.15;;;2.25;;
61785;SDS011;47692;53.714;11.372;2023-11-21T14:51:24;4.90;;;2.10;;
61785;SDS011;47692;53.714;11.372;2023-11-21T14:56:25;4.20;;;2.10;;
61785;SDS011;47692;53.714;11.372;2023-11-21T14:58:55;5.30;;;1.67;;
61785;SDS011;47692;53.714;11.372;2023-11-21T15:01:22;3.03;;;1.92;;
61785;SDS011;47692;53.714;11.372;2023-11-21T15:04:07;4.10;;;1.88;;
61785;SDS011;47692;53.714;11.372;2023-11-21T15:06:39;4.65;;;1.60;;
61785;SDS011;47692;53.714;11.372;2023-11-21T15:09:07;2.83;;;1.48;;